createdAt,value
2022-11-21T00:00:17.720Z,98295.25
2022-11-21T00:02:45.775Z,98301.84
2022-11-21T00:05:13.847Z,98301.03
2022-11-21T00:07:42.043Z,98299.50
2022-11-21T00:10:10.693Z,98289.78
2022-11-21T00:12:38.721Z,98261.09
2022-11-21T00:15:09.194Z,98242.13
2022-11-21T00:17:37.211Z,98231.66
2022-11-21T00:20:05.821Z,98231.63
2022-11-21T00:22:33.969Z,98223.09
2022-11-21T00:25:02.257Z,98215.75
2022-11-21T00:27:30.323Z,98204.13
2022-11-21T00:29:58.697Z,98207.59
2022-11-21T00:32:28.596Z,98216.16
2022-11-21T00:34:56.802Z,98206.44
2022-11-21T00:37:24.762Z,98188.19
2022-11-21T00:39:52.774Z,98195.19
2022-11-21T00:42:20.735Z,98191.34
2022-11-21T00:44:48.771Z,98193.25
2022-11-21T00:47:17.016Z,98179.28
2022-11-21T00:49:46.625Z,98181.66
2022-11-21T00:52:15.160Z,98182.78
2022-11-21T00:54:43.201Z,98172.34
2022-11-21T00:57:11.414Z,98194.41
2022-11-21T00:59:40.106Z,98233.19
2022-11-21T01:02:08.234Z,98252.19
2022-11-21T01:04:36.629Z,98275.47
2022-11-21T01:07:06.154Z,98292.53
2022-11-21T01:09:34.214Z,98306.47
2022-11-21T01:12:02.251Z,98288.66
2022-11-21T01:14:30.531Z,98303.00
2022-11-21T01:16:58.584Z,98309.56
2022-11-21T01:19:26.773Z,98321.22
2022-11-21T01:21:54.828Z,98325.47
2022-11-21T01:24:24.401Z,98368.91
2022-11-21T01:26:54.273Z,98395.69
2022-11-21T01:29:22.489Z,98342.56
2022-11-21T01:31:50.700Z,98269.66
2022-11-21T01:34:18.790Z,98188.94
2022-11-21T01:36:47.083Z,98183.91
2022-11-21T01:39:15.123Z,98197.09
2022-11-21T01:41:46.454Z,98223.84
2022-11-21T01:44:20.341Z,98208.31
2022-11-21T01:46:48.871Z,98207.56
2022-11-21T01:49:19.410Z,98210.25
2022-11-21T01:51:54.304Z,98208.34
2022-11-21T01:54:27.183Z,98211.47
2022-11-21T01:57:03.332Z,98237.00
2022-11-21T01:59:34.519Z,98242.47
2022-11-21T02:02:05.233Z,98245.59
2022-11-21T02:04:35.243Z,98244.41
2022-11-21T02:07:07.821Z,98241.28
2022-11-21T02:09:40.413Z,98245.94
2022-11-21T02:12:15.162Z,98246.34
2022-11-21T02:14:44.743Z,98226.53
2022-11-21T02:17:13.363Z,98209.09
2022-11-21T02:19:51.657Z,98206.41
2022-11-21T02:22:28.769Z,98199.03
2022-11-21T02:25:05.087Z,98184.31
2022-11-21T02:27:33.414Z,98188.56
2022-11-21T02:30:02.950Z,98205.28
2022-11-21T02:32:35.188Z,98167.66
2022-11-21T02:35:03.565Z,98188.19
2022-11-21T02:37:33.107Z,98178.91
2022-11-21T02:40:07.854Z,98182.41
2022-11-21T02:42:41.333Z,98188.59
2022-11-21T02:45:15.493Z,98170.75
2022-11-21T02:47:46.388Z,98155.66
2022-11-21T02:50:17.899Z,98166.53
2022-11-21T02:52:46.179Z,98158.78
2022-11-21T02:55:16.508Z,98156.06
2022-11-21T02:57:44.701Z,98155.28
2022-11-21T03:00:13.741Z,98163.41
2022-11-21T03:02:41.968Z,98165.00
2022-11-21T03:05:12.841Z,98158.78
2022-11-21T03:07:40.927Z,98156.44
2022-11-21T03:10:10.009Z,98174.28
2022-11-21T03:12:39.722Z,98182.81
2022-11-21T03:15:11.166Z,98164.97
2022-11-21T03:17:39.314Z,98168.09
2022-11-21T03:20:08.593Z,98171.56
2022-11-21T03:22:37.030Z,98175.06
2022-11-21T03:25:06.231Z,98146.38
2022-11-21T03:27:34.312Z,98156.44
2022-11-21T03:30:03.820Z,98135.13
2022-11-21T03:32:31.988Z,98153.75
2022-11-21T03:35:00.252Z,98134.75
2022-11-21T03:37:28.249Z,98114.97
2022-11-21T03:39:56.515Z,98110.69
2022-11-21T03:42:24.498Z,98116.53
2022-11-21T03:44:52.514Z,98138.63
2022-11-21T03:47:22.784Z,98122.72
2022-11-21T03:49:50.814Z,98108.41
2022-11-21T03:52:18.859Z,98123.13
2022-11-21T03:54:46.931Z,98107.25
2022-11-21T03:57:14.984Z,98094.47
2022-11-21T03:59:43.047Z,98112.66
2022-11-21T04:02:11.039Z,98133.22
2022-11-21T04:04:40.503Z,98115.78
2022-11-21T04:07:08.673Z,98090.94
2022-11-21T04:09:36.789Z,98109.16
2022-11-21T04:12:07.652Z,98127.00
2022-11-21T04:14:36.200Z,98133.59
2022-11-21T04:17:04.359Z,98120.81
2022-11-21T04:19:32.445Z,98138.22
2022-11-21T04:22:01.923Z,98135.16
2022-11-21T04:24:30.462Z,98139.78
2022-11-21T04:26:58.943Z,98119.66
2022-11-21T04:29:26.974Z,98125.06
2022-11-21T04:31:55.055Z,98117.31
2022-11-21T04:34:23.556Z,98113.06
2022-11-21T04:36:51.539Z,98117.69
2022-11-21T04:39:21.133Z,98124.28
2022-11-21T04:41:49.221Z,98127.00
2022-11-21T04:44:17.970Z,98114.63
2022-11-21T04:46:46.318Z,98089.44
2022-11-21T04:49:14.458Z,98101.44
2022-11-21T04:51:42.557Z,98116.53
2022-11-21T04:54:12.060Z,98124.66
2022-11-21T04:56:41.590Z,98158.78
2022-11-21T04:59:12.099Z,98131.25
2022-11-21T05:01:40.275Z,98102.22
2022-11-21T05:04:08.293Z,98124.69
2022-11-21T05:06:36.379Z,98126.22
2022-11-21T05:09:04.494Z,98106.88
2022-11-21T05:11:50.309Z,98110.75
2022-11-21T05:14:19.824Z,98117.72
2022-11-21T05:16:47.891Z,98109.19
2022-11-21T05:19:16.369Z,98119.63
2022-11-21T05:21:45.544Z,98135.50
2022-11-21T05:24:13.601Z,98112.25
2022-11-21T05:26:41.744Z,98095.25
2022-11-21T05:29:09.847Z,98094.84
2022-11-21T05:31:41.493Z,98106.44
2022-11-21T05:34:09.776Z,98096.78
2022-11-21T05:36:37.826Z,98099.13
2022-11-21T05:39:05.793Z,98119.25
2022-11-21T05:41:34.123Z,98131.28
2022-11-21T05:44:01.130Z,98128.16
2022-11-21T05:46:29.565Z,98135.53
2022-11-21T05:48:59.596Z,98129.34
2022-11-21T05:51:28.852Z,98143.28
2022-11-21T05:53:56.933Z,98135.50
2022-11-21T05:56:25.046Z,98155.28
2022-11-21T05:58:53.324Z,98163.41
2022-11-21T06:01:41.413Z,98150.25
2022-11-21T06:04:11.003Z,98148.69
2022-11-21T06:06:39.125Z,98154.91
2022-11-21T06:09:07.292Z,98161.13
2022-11-21T06:11:35.294Z,98182.03
2022-11-21T06:14:03.387Z,98178.16
2022-11-21T06:16:31.725Z,98172.34
2022-11-21T06:19:00.102Z,98161.09
2022-11-21T06:21:30.547Z,98149.50
2022-11-21T06:24:00.027Z,98149.09
2022-11-21T06:26:29.150Z,98147.56
2022-11-21T06:28:57.193Z,98149.88
2022-11-21T06:31:26.803Z,98161.09
2022-11-21T06:33:56.147Z,98152.97
2022-11-21T06:36:24.604Z,98150.66
2022-11-21T06:38:55.463Z,98150.25
2022-11-21T06:41:24.916Z,98168.84
2022-11-21T06:43:53.138Z,98181.66
2022-11-21T06:46:21.225Z,98173.91
2022-11-21T06:48:49.456Z,98185.91
2022-11-21T06:51:20.357Z,98186.66
2022-11-21T06:53:55.930Z,98180.06
2022-11-21T06:56:26.062Z,98177.75
2022-11-21T06:58:56.445Z,98188.97
2022-11-21T07:01:24.914Z,98183.53
2022-11-21T07:03:54.134Z,98181.22
2022-11-21T07:06:22.503Z,98185.84
2022-11-21T07:09:17.686Z,98193.25
2022-11-21T07:11:43.409Z,98192.44
2022-11-21T07:14:11.127Z,98187.78
2022-11-21T07:16:39.688Z,98180.00
2022-11-21T07:19:07.899Z,98189.69
2022-11-21T07:21:36.124Z,98184.63
2022-11-21T07:24:04.441Z,98186.19
2022-11-21T07:26:32.503Z,98185.00
2022-11-21T07:29:02.346Z,98206.75
2022-11-21T07:31:31.124Z,98206.75
2022-11-21T07:33:59.730Z,98207.53
2022-11-21T07:36:33.631Z,98219.16
2022-11-21T07:39:03.478Z,98203.59
2022-11-21T07:41:31.562Z,98212.16
2022-11-21T07:44:01.379Z,98216.44
2022-11-21T07:46:30.067Z,98228.84
2022-11-21T07:49:02.918Z,98215.66
2022-11-21T07:51:31.791Z,98207.13
2022-11-21T07:54:02.340Z,98204.41
2022-11-21T07:56:30.388Z,98210.53
2022-11-21T07:58:58.572Z,98216.72
2022-11-21T08:01:28.248Z,98213.59
2022-11-21T08:03:56.813Z,98213.91
2022-11-21T08:06:25.171Z,98221.25
2022-11-21T08:08:54.328Z,98236.63
2022-11-21T08:11:22.530Z,98240.13
2022-11-21T08:13:50.620Z,98243.56
2022-11-21T08:16:18.670Z,98237.19
2022-11-21T08:18:48.056Z,98247.75
2022-11-21T08:21:19.847Z,98252.00
2022-11-21T08:23:48.348Z,98261.34
2022-11-21T08:26:17.863Z,98239.91
2022-11-21T08:28:47.282Z,98241.78
2022-11-21T08:31:17.191Z,98246.06
2022-11-21T08:33:45.772Z,98243.75
2022-11-21T08:36:15.546Z,98238.94
2022-11-21T08:38:43.638Z,98235.34
2022-11-21T08:41:31.132Z,98237.91
2022-11-21T08:43:59.337Z,98242.00
2022-11-21T08:46:28.480Z,98246.44
2022-11-21T08:48:57.240Z,98248.91
2022-11-21T08:51:26.830Z,98239.38
2022-11-21T08:53:54.863Z,98236.44
2022-11-21T08:56:22.978Z,98244.03
2022-11-21T08:58:51.195Z,98245.25
2022-11-21T09:01:19.395Z,98238.03
2022-11-21T09:03:47.559Z,98234.63
2022-11-21T09:06:15.657Z,98236.63
2022-11-21T09:08:45.122Z,98222.41
2022-11-21T09:11:13.219Z,98230.03
2022-11-21T09:13:41.318Z,98231.94
2022-11-21T09:16:29.864Z,98226.25
2022-11-21T09:18:58.036Z,98221.34
2022-11-21T09:21:26.087Z,98207.69
2022-11-21T09:23:55.609Z,98224.00
2022-11-21T09:26:23.801Z,98220.56
2022-11-21T09:28:51.905Z,98220.13
2022-11-21T09:31:20.013Z,98219.38
2022-11-21T09:33:53.561Z,98219.03
2022-11-21T09:36:22.953Z,98215.44
2022-11-21T09:38:54.113Z,98207.78
2022-11-21T09:41:49.406Z,98203.63
2022-11-21T09:44:37.314Z,98203.97
2022-11-21T09:47:13.069Z,98211.84
2022-11-21T09:49:47.075Z,98219.25
2022-11-21T09:52:19.418Z,98222.44
2022-11-21T09:54:51.374Z,98213.06
2022-11-21T09:57:25.027Z,98220.84
2022-11-21T09:59:53.965Z,98223.81
2022-11-21T10:02:24.342Z,98222.00
2022-11-21T10:04:53.719Z,98212.28
2022-11-21T10:07:27.230Z,98212.84
2022-11-21T10:10:38.870Z,98213.03
2022-11-21T10:13:20.447Z,98206.63
2022-11-21T10:15:59.424Z,98215.53
2022-11-21T10:18:58.363Z,98207.19
2022-11-21T10:21:59.203Z,98205.13
2022-11-21T10:24:40.753Z,98211.41
2022-11-21T10:27:15.383Z,98210.00
2022-11-21T10:29:53.395Z,98211.75
2022-11-21T10:32:25.907Z,98222.84
2022-11-21T10:35:00.140Z,98221.53
2022-11-21T10:37:36.951Z,98222.75
2022-11-21T10:40:17.245Z,98228.22
2022-11-21T10:42:53.363Z,98230.28
2022-11-21T10:45:22.967Z,98233.56
2022-11-21T10:47:53.218Z,98246.03
2022-11-21T10:50:39.648Z,98253.44
2022-11-21T10:53:34.028Z,98232.28
2022-11-21T10:56:05.891Z,98257.69
2022-11-21T10:58:45.597Z,98244.00
2022-11-21T11:01:24.312Z,98251.00
2022-11-21T11:04:43.760Z,98251.78
2022-11-21T11:07:22.567Z,98245.72
2022-11-21T11:09:52.459Z,98248.13
2022-11-21T11:12:50.066Z,98250.09
2022-11-21T11:15:26.524Z,98256.31
2022-11-21T11:18:05.566Z,98248.00
2022-11-21T11:20:39.886Z,98247.16
2022-11-21T11:23:18.388Z,98260.34
2022-11-21T11:25:48.517Z,98267.19
2022-11-21T11:28:16.542Z,98254.16
2022-11-21T11:30:45.185Z,98248.53
2022-11-21T11:33:36.813Z,98265.53
2022-11-21T11:36:15.233Z,98264.41
2022-11-21T11:38:48.216Z,98269.06
2022-11-21T11:41:52.575Z,98276.56
2022-11-21T11:44:47.045Z,98275.50
2022-11-21T11:47:32.643Z,98283.53
2022-11-21T11:50:15.672Z,98289.97
2022-11-21T11:52:58.550Z,98297.13
2022-11-21T11:55:37.266Z,98300.75
2022-11-21T11:58:12.910Z,98308.25
2022-11-21T12:00:47.045Z,98310.72
2022-11-21T12:03:20.970Z,98312.50
2022-11-21T12:06:07.486Z,98315.81
2022-11-21T12:08:45.133Z,98329.47
2022-11-21T12:11:52.158Z,98319.34
2022-11-21T12:14:51.462Z,98322.56
2022-11-21T12:17:23.036Z,98327.38
2022-11-21T12:19:54.024Z,98339.53
2022-11-21T12:22:24.015Z,98345.50
2022-11-21T12:24:52.201Z,98343.97
2022-11-21T12:27:30.896Z,98343.13
2022-11-21T12:30:31.479Z,98352.16
2022-11-21T12:33:08.783Z,98362.97
2022-11-21T12:36:18.461Z,98349.00
2022-11-21T12:39:28.344Z,98348.34
2022-11-21T12:42:23.152Z,98356.56
2022-11-21T12:45:05.056Z,98356.19
2022-11-21T12:48:15.462Z,98353.91
2022-11-21T12:51:12.155Z,98361.13
2022-11-21T12:54:07.658Z,98363.53
2022-11-21T12:56:47.625Z,98380.69
2022-11-21T12:59:17.138Z,98375.16
2022-11-21T13:01:55.417Z,98387.97
2022-11-21T13:04:29.906Z,98390.63
2022-11-21T13:07:00.043Z,98390.50
2022-11-21T13:09:31.791Z,98390.78
2022-11-21T13:12:06.515Z,98380.47
2022-11-21T13:14:49.110Z,98375.44
2022-11-21T13:17:30.047Z,98371.28
2022-11-21T13:20:00.884Z,98365.09
2022-11-21T13:22:55.007Z,98363.59
2022-11-21T13:25:48.243Z,98363.16
2022-11-21T13:28:33.487Z,98365.69
2022-11-21T13:31:24.842Z,98379.13
2022-11-21T13:33:53.850Z,98393.03
2022-11-21T13:36:52.160Z,98389.69
2022-11-21T13:39:31.624Z,98399.34
2022-11-21T13:42:22.238Z,98396.50
2022-11-21T13:44:51.353Z,98396.59
2022-11-21T13:48:06.786Z,98397.84
2022-11-21T13:51:22.435Z,98402.25
2022-11-21T13:54:15.574Z,98405.47
2022-11-21T13:57:01.513Z,98402.44
2022-11-21T13:59:51.628Z,98401.47
2022-11-21T14:02:40.053Z,98410.44
2022-11-21T14:05:41.489Z,98411.31
2022-11-21T14:08:18.534Z,98410.13
2022-11-21T14:10:47.371Z,98415.22
2022-11-21T14:13:28.133Z,98403.53
2022-11-21T14:16:19.258Z,98404.31
2022-11-21T14:18:48.232Z,98400.06
2022-11-21T14:21:22.263Z,98411.38
2022-11-21T14:23:51.915Z,98410.66
2022-11-21T14:26:22.049Z,98412.63
2022-11-21T14:28:50.071Z,98426.25
2022-11-21T14:31:18.700Z,98428.97
2022-11-21T14:33:48.038Z,98436.41
2022-11-21T14:36:18.541Z,98432.16
2022-11-21T14:39:02.180Z,98427.88
2022-11-21T14:41:41.593Z,98439.56
2022-11-21T14:44:21.379Z,98439.59
2022-11-21T14:46:50.574Z,98437.25
2022-11-21T14:49:30.403Z,98442.31
2022-11-21T14:52:16.544Z,98441.91
2022-11-21T14:55:13.430Z,98444.25
2022-11-21T14:57:44.594Z,98457.47
2022-11-21T15:00:43.376Z,98458.22
2022-11-21T15:03:05.882Z,98452.81
2022-11-21T15:08:55.785Z,98458.94
2022-11-21T15:11:14.360Z,98462.06
2022-11-21T15:14:12.323Z,98475.25
2022-11-21T15:16:35.190Z,98476.78
2022-11-21T15:19:09.719Z,98481.41
2022-11-21T15:21:38.164Z,98484.84
2022-11-21T15:24:18.275Z,98482.13
2022-11-21T15:26:47.409Z,98491.34
2022-11-21T15:29:22.230Z,98491.72
2022-11-21T15:32:08.696Z,98492.47
2022-11-21T15:34:38.721Z,98506.38
2022-11-21T15:37:13.496Z,98510.22
2022-11-21T15:39:45.472Z,98503.97
2022-11-21T15:42:38.738Z,98521.75
2022-11-21T15:45:26.676Z,98517.41
2022-11-21T15:47:55.994Z,98527.09
2022-11-21T15:50:26.385Z,98525.16
2022-11-21T15:52:54.772Z,98512.00
2022-11-21T15:55:26.512Z,98512.72
2022-11-21T15:57:54.505Z,98521.97
2022-11-21T16:00:23.009Z,98521.56
2022-11-21T16:02:52.536Z,98519.94
2022-11-21T16:05:20.622Z,98514.88
2022-11-21T16:07:48.919Z,98518.00
2022-11-21T16:10:24.384Z,98534.25
2022-11-21T16:12:55.400Z,98533.09
2022-11-21T16:15:23.663Z,98528.84
2022-11-21T16:17:54.196Z,98537.75
2022-11-21T16:20:22.415Z,98530.38
2022-11-21T16:22:53.426Z,98535.78
2022-11-21T16:25:21.682Z,98541.94
2022-11-21T16:27:49.938Z,98517.56
2022-11-21T16:30:19.187Z,98521.09
2022-11-21T16:32:47.287Z,98522.63
2022-11-21T16:35:17.052Z,98520.28
2022-11-21T16:37:45.160Z,98510.97
2022-11-21T16:40:14.099Z,98520.25
2022-11-21T16:42:42.268Z,98518.66
2022-11-21T16:45:12.033Z,98518.63
2022-11-21T16:47:43.092Z,98524.72
2022-11-21T16:50:17.231Z,98535.94
2022-11-21T16:52:45.367Z,98529.72
2022-11-21T16:55:13.339Z,98538.25
2022-11-21T16:57:43.320Z,98537.09
2022-11-21T17:00:13.089Z,98531.22
2022-11-21T17:02:41.385Z,98534.75
2022-11-21T17:05:10.128Z,98546.34
2022-11-21T17:07:39.799Z,98543.56
2022-11-21T17:10:08.861Z,98552.53
2022-11-21T17:12:39.030Z,98556.34
2022-11-21T17:15:10.564Z,98552.81
2022-11-21T17:17:38.767Z,98569.41
2022-11-21T17:20:09.500Z,98571.25
2022-11-21T17:22:37.620Z,98569.63
2022-11-21T17:25:08.199Z,98581.50
2022-11-21T17:27:36.429Z,98578.34
2022-11-21T17:30:04.827Z,98589.13
2022-11-21T17:32:32.920Z,98600.69
2022-11-21T17:35:00.996Z,98598.00
2022-11-21T17:37:29.075Z,98606.44
2022-11-21T17:39:57.153Z,98602.88
2022-11-21T17:42:28.523Z,98609.03
2022-11-21T17:44:56.706Z,98600.50
2022-11-21T17:47:24.730Z,98605.09
2022-11-21T17:49:52.816Z,98609.72
2022-11-21T17:52:20.967Z,98613.53
2022-11-21T17:54:51.548Z,98610.00
2022-11-21T17:57:20.129Z,98612.59
2022-11-21T17:59:49.744Z,98607.91
2022-11-21T18:02:20.597Z,98614.38
2022-11-21T18:04:49.430Z,98610.81
2022-11-21T18:07:17.621Z,98608.31
2022-11-21T18:09:45.778Z,98614.41
2022-11-21T18:12:14.401Z,98617.47
2022-11-21T18:14:42.539Z,98612.06
2022-11-21T18:17:12.021Z,98618.66
2022-11-21T18:19:40.852Z,98626.00
2022-11-21T18:22:08.998Z,98622.16
2022-11-21T18:24:37.253Z,98632.53
2022-11-21T18:27:05.723Z,98629.13
2022-11-21T18:29:36.620Z,98632.53
2022-11-21T18:32:06.096Z,98627.34
2022-11-21T18:34:38.098Z,98638.44
2022-11-21T18:37:06.673Z,98639.66
2022-11-21T18:39:35.556Z,98649.25
2022-11-21T18:42:07.102Z,98647.66
2022-11-21T18:44:35.382Z,98652.97
2022-11-21T18:47:16.101Z,98650.22
2022-11-21T18:49:49.723Z,98653.59
2022-11-21T18:52:17.882Z,98658.75
2022-11-21T18:54:47.059Z,98652.63
2022-11-21T18:57:15.304Z,98666.88
2022-11-21T18:59:43.467Z,98659.88
2022-11-21T19:02:13.152Z,98667.28
2022-11-21T19:04:41.802Z,98675.03
2022-11-21T19:07:11.530Z,98676.91
2022-11-21T19:09:40.335Z,98685.06
2022-11-21T19:12:08.857Z,98680.88
2022-11-21T19:14:36.869Z,98691.97
2022-11-21T19:17:05.177Z,98696.78
2022-11-21T19:19:35.856Z,98702.97
2022-11-21T19:22:05.896Z,98704.75
2022-11-21T19:24:41.344Z,98710.22
2022-11-21T19:27:09.852Z,98710.16
2022-11-21T19:29:37.992Z,98712.09
2022-11-21T19:32:06.493Z,98718.63
2022-11-21T19:34:34.591Z,98718.28
2022-11-21T19:37:02.784Z,98722.84
2022-11-21T19:39:31.626Z,98728.25
2022-11-21T19:42:01.303Z,98727.38
2022-11-21T19:44:29.378Z,98721.25
2022-11-21T19:46:57.549Z,98705.09
2022-11-21T19:49:25.834Z,98711.31
2022-11-21T19:51:53.893Z,98717.84
2022-11-21T19:54:22.037Z,98725.59
2022-11-21T19:56:50.049Z,98732.94
2022-11-21T19:59:20.057Z,98737.97
2022-11-21T20:01:52.412Z,98739.06
2022-11-21T20:04:21.722Z,98748.66
2022-11-21T20:06:50.256Z,98745.97
2022-11-21T20:09:20.290Z,98744.38
2022-11-21T20:11:50.449Z,98737.03
2022-11-21T20:14:23.178Z,98745.09
2022-11-21T20:16:53.297Z,98738.03
2022-11-21T20:19:24.124Z,98734.16
2022-11-21T20:21:53.055Z,98736.78
2022-11-21T20:24:21.195Z,98744.53
2022-11-21T20:26:49.460Z,98744.25
2022-11-21T20:29:17.580Z,98752.06
2022-11-21T20:31:48.395Z,98765.22
2022-11-21T20:37:03.313Z,98758.31
2022-11-21T20:39:32.313Z,98746.75
2022-11-21T20:42:01.900Z,98749.78
2022-11-21T20:47:20.586Z,98754.84
2022-11-21T20:53:49.564Z,98762.66
2022-11-21T20:55:05.501Z,98763.38
2022-11-21T20:57:33.533Z,98761.03
2022-11-21T21:00:03.959Z,98751.44
2022-11-21T21:02:33.378Z,98759.59
2022-11-21T21:05:01.609Z,98755.75
2022-11-21T21:07:29.895Z,98750.41
2022-11-21T21:09:59.943Z,98758.16
2022-11-21T21:12:29.587Z,98767.84
2022-11-21T21:14:57.702Z,98767.47
2022-11-21T21:17:25.853Z,98770.19
2022-11-21T21:19:55.201Z,98772.47
2022-11-21T21:22:26.262Z,98773.66
2022-11-21T21:24:54.336Z,98778.78
2022-11-21T21:27:22.621Z,98785.34
2022-11-21T21:29:50.739Z,98777.94
2022-11-21T21:32:18.873Z,98783.84
2022-11-21T21:34:46.878Z,98791.94
2022-11-21T21:37:16.269Z,98790.03
2022-11-21T21:39:44.464Z,98797.34
2022-11-21T21:42:12.552Z,98799.56
2022-11-21T21:44:40.726Z,98795.22
2022-11-21T21:47:11.303Z,98799.41
2022-11-21T21:49:39.496Z,98802.06
2022-11-21T21:52:07.919Z,98804.25
2022-11-21T21:54:37.301Z,98809.25
2022-11-21T21:57:05.851Z,98821.13
2022-11-21T21:59:34.121Z,98817.56
2022-11-21T22:02:02.264Z,98825.66
2022-11-21T22:04:32.285Z,98821.75
2022-11-21T22:07:00.722Z,98818.97
2022-11-21T22:09:28.953Z,98821.16
2022-11-21T22:11:58.582Z,98821.16
2022-11-21T22:14:26.878Z,98824.19
2022-11-21T22:16:55.093Z,98827.28
2022-11-21T22:19:23.516Z,98830.75
2022-11-21T22:21:51.609Z,98834.50
2022-11-21T22:24:27.453Z,98831.78
2022-11-21T22:26:56.022Z,98821.00
2022-11-21T22:29:25.702Z,98817.06
2022-11-21T22:31:53.851Z,98814.09
2022-11-21T22:34:22.098Z,98820.22
2022-11-21T22:36:50.140Z,98808.13
2022-11-21T22:39:18.220Z,98815.09
2022-11-21T22:41:46.298Z,98818.66
2022-11-21T22:44:14.505Z,98813.66
2022-11-21T22:46:43.908Z,98819.06
2022-11-21T22:49:12.009Z,98819.06
2022-11-21T22:51:40.128Z,98832.94
2022-11-21T22:54:08.240Z,98829.88
2022-11-21T22:56:36.902Z,98822.47
2022-11-21T22:59:05.493Z,98828.97
2022-11-21T23:01:35.122Z,98823.91
2022-11-21T23:04:04.808Z,98841.66
2022-11-21T23:06:32.917Z,98835.47
2022-11-21T23:09:00.943Z,98831.72
2022-11-21T23:11:37.819Z,98843.31
2022-11-21T23:14:08.013Z,98842.53
2022-11-21T23:16:36.220Z,98851.06
2022-11-21T23:19:05.986Z,98854.56
2022-11-21T23:21:34.170Z,98848.78
2022-11-21T23:24:02.238Z,98862.00
2022-11-21T23:26:30.237Z,98870.50
2022-11-21T23:29:01.231Z,98873.19
2022-11-21T23:31:31.784Z,98879.81
2022-11-21T23:33:59.774Z,98877.56
2022-11-21T23:36:29.319Z,98885.75
2022-11-21T23:38:57.477Z,98888.00
2022-11-21T23:41:25.514Z,98891.50
2022-11-21T23:43:53.542Z,98886.88
2022-11-21T23:46:21.643Z,98887.25
2022-11-21T23:48:49.763Z,98884.78
2022-11-21T23:51:17.823Z,98892.00
2022-11-21T23:53:47.313Z,98890.00
2022-11-21T23:56:15.389Z,98911.53
2022-11-21T23:58:43.532Z,98898.75
